createdAt,value
2022-11-24T00:04:04.746Z,-0.89
2022-11-24T00:09:06.757Z,-0.90
2022-11-24T00:14:08.428Z,-0.90
2022-11-24T00:19:10.385Z,-0.82
2022-11-24T00:24:12.387Z,-0.89
2022-11-24T00:29:14.158Z,-1.06
2022-11-24T00:34:15.861Z,-0.90
2022-11-24T00:39:17.668Z,-0.96
2022-11-24T00:44:19.324Z,-1.20
2022-11-24T00:49:21.025Z,-1.20
2022-11-24T00:54:22.734Z,-1.10
2022-11-24T00:59:24.393Z,-1.34
2022-11-24T01:04:26.097Z,-1.04
2022-11-24T01:09:27.829Z,-1.27
2022-11-24T01:14:31.451Z,-1.31
2022-11-24T01:19:33.459Z,-1.47
2022-11-24T01:24:35.452Z,-1.29
2022-11-24T01:29:37.476Z,-1.35
2022-11-24T01:34:42.023Z,-1.31
2022-11-24T01:39:43.696Z,-1.47
2022-11-24T01:44:45.498Z,-1.39
2022-11-24T01:49:51.855Z,-1.36
2022-11-24T01:55:00.672Z,-1.57
2022-11-24T02:00:07.665Z,-1.50
2022-11-24T02:05:26.400Z,-1.40
2022-11-24T02:10:29.113Z,-1.35
2022-11-24T02:15:30.948Z,-1.37
2022-11-24T02:20:34.146Z,-1.31
2022-11-24T02:25:40.585Z,-1.36
2022-11-24T02:30:42.576Z,-1.52
2022-11-24T02:35:44.319Z,-1.55
2022-11-24T02:40:49.759Z,-1.49
2022-11-24T02:45:51.459Z,-1.55
2022-11-24T02:50:53.185Z,-1.41
2022-11-24T02:55:54.854Z,-1.51
2022-11-24T03:00:57.352Z,-1.67
2022-11-24T03:05:59.034Z,-1.56
2022-11-24T03:11:02.947Z,-1.57
2022-11-24T03:16:08.524Z,-1.50
2022-11-24T03:21:10.206Z,-1.64
2022-11-24T03:26:14.854Z,-1.71
2022-11-24T03:31:16.701Z,-1.77
2022-11-24T03:36:18.739Z,-1.82
2022-11-24T03:41:20.466Z,-1.86
2022-11-24T03:46:22.213Z,-1.98
2022-11-24T03:51:23.902Z,-1.72
2022-11-24T03:56:25.568Z,-1.98
2022-11-24T04:01:27.315Z,-1.88
2022-11-24T04:06:29.060Z,-1.84
2022-11-24T04:11:48.987Z,-1.74
2022-11-24T04:16:50.649Z,-1.70
2022-11-24T04:21:52.329Z,-1.68
2022-11-24T04:26:54.543Z,-1.74
2022-11-24T04:31:56.245Z,-1.51
2022-11-24T04:36:57.983Z,-1.34
2022-11-24T04:41:59.887Z,-1.38
2022-11-24T04:47:01.606Z,-1.37
2022-11-24T04:52:03.382Z,-1.33
2022-11-24T04:57:05.051Z,-1.23
2022-11-24T05:02:06.787Z,-0.97
2022-11-24T05:07:18.268Z,-0.85
2022-11-24T05:12:20.582Z,-0.99
2022-11-24T05:17:22.231Z,-1.10
2022-11-24T05:22:24.476Z,-0.94
2022-11-24T05:27:26.172Z,-0.92
2022-11-24T05:32:28.043Z,-0.96
2022-11-24T05:37:29.807Z,-0.91
2022-11-24T05:42:46.162Z,-0.55
2022-11-24T05:47:50.701Z,-0.49
2022-11-24T05:52:52.451Z,-0.62
2022-11-24T05:58:06.083Z,-0.51
2022-11-24T06:03:09.984Z,-0.47
2022-11-24T06:08:11.792Z,-0.19
2022-11-24T06:13:13.485Z,-0.13
2022-11-24T06:18:15.416Z,-0.03
2022-11-24T06:23:17.088Z,-0.03
2022-11-24T06:28:18.738Z,0.30
2022-11-24T06:33:20.775Z,0.28
2022-11-24T06:38:24.411Z,0.38
2022-11-24T06:43:27.982Z,0.30
2022-11-24T06:48:30.509Z,0.36
2022-11-24T06:53:37.971Z,0.48
2022-11-24T06:58:44.596Z,0.69
2022-11-24T07:03:48.233Z,0.79
2022-11-24T07:08:50.836Z,0.87
2022-11-24T07:13:58.178Z,0.95
2022-11-24T07:19:01.539Z,1.06
2022-11-24T07:24:03.425Z,1.06
2022-11-24T07:29:05.502Z,1.00
2022-11-24T07:34:07.171Z,1.02
2022-11-24T07:39:08.859Z,1.17
2022-11-24T07:44:10.520Z,1.39
2022-11-24T07:49:12.247Z,1.29
2022-11-24T07:54:13.963Z,1.42
2022-11-24T07:59:15.888Z,1.53
2022-11-24T08:04:17.534Z,1.58
2022-11-24T08:09:19.205Z,1.75
2022-11-24T08:14:20.913Z,2.00
2022-11-24T08:19:22.717Z,2.09
2022-11-24T08:24:24.438Z,2.11
2022-11-24T08:29:30.017Z,2.12
2022-11-24T08:34:31.835Z,2.32
2022-11-24T08:39:33.852Z,2.21
2022-11-24T08:44:35.974Z,2.40
2022-11-24T08:49:37.906Z,2.13
2022-11-24T08:54:40.860Z,2.26
2022-11-24T08:59:42.533Z,2.24
2022-11-24T09:04:45.061Z,2.49
2022-11-24T09:09:46.766Z,2.39
2022-11-24T09:14:48.420Z,2.58
2022-11-24T09:19:50.086Z,2.87
2022-11-24T09:24:51.827Z,3.05
2022-11-24T09:29:53.572Z,3.49
2022-11-24T09:34:55.265Z,3.73
2022-11-24T09:39:56.926Z,4.85
2022-11-24T09:45:15.285Z,4.99
2022-11-24T09:50:24.164Z,4.57
2022-11-24T09:55:31.679Z,4.39
2022-11-24T10:00:34.101Z,4.38
2022-11-24T10:05:36.591Z,4.50
2022-11-24T10:10:49.090Z,4.50
2022-11-24T10:16:13.748Z,4.61
2022-11-24T10:21:33.380Z,4.78
2022-11-24T10:26:36.471Z,4.89
2022-11-24T10:31:43.520Z,5.10
2022-11-24T10:37:15.223Z,5.16
2022-11-24T10:42:33.647Z,4.90
2022-11-24T10:47:37.683Z,5.08
2022-11-24T10:52:47.782Z,5.56
2022-11-24T10:57:49.633Z,5.74
2022-11-24T11:03:12.016Z,5.82
2022-11-24T11:08:14.069Z,6.35
2022-11-24T11:13:23.704Z,6.36
2022-11-24T11:18:32.752Z,6.01
2022-11-24T11:23:36.742Z,5.96
2022-11-24T11:28:39.149Z,5.95
2022-11-24T11:34:14.460Z,5.89
2022-11-24T11:39:20.633Z,6.05
2022-11-24T11:44:25.076Z,6.00
2022-11-24T11:49:26.848Z,6.28
2022-11-24T11:54:43.113Z,6.26
2022-11-24T11:59:50.610Z,6.45
2022-11-24T12:04:56.796Z,6.76
2022-11-24T12:10:07.527Z,7.14
2022-11-24T12:15:15.399Z,7.57
2022-11-24T12:20:58.795Z,7.74
2022-11-24T12:26:29.776Z,8.07
2022-11-24T12:32:00.446Z,8.46
2022-11-24T12:37:25.188Z,8.55
2022-11-24T12:42:57.444Z,8.76
2022-11-24T12:48:13.908Z,8.89
2022-11-24T12:53:29.382Z,8.93
2022-11-24T12:58:40.010Z,8.99
2022-11-24T13:03:41.640Z,9.25
2022-11-24T13:08:43.967Z,9.29
2022-11-24T13:14:02.845Z,9.35
2022-11-24T13:19:30.472Z,9.24
2022-11-24T13:24:36.357Z,9.00
2022-11-24T13:29:40.337Z,8.90
2022-11-24T13:34:42.872Z,8.99
2022-11-24T13:39:51.570Z,8.81
2022-11-24T13:45:03.820Z,8.85
2022-11-24T13:50:45.396Z,8.81
2022-11-24T13:55:56.564Z,8.73
2022-11-24T14:01:13.640Z,8.70
2022-11-24T14:06:46.388Z,8.62
2022-11-24T14:11:58.318Z,8.66
2022-11-24T14:17:08.772Z,8.67
2022-11-24T14:22:17.578Z,8.73
2022-11-24T14:27:26.771Z,8.66
2022-11-24T14:32:28.870Z,8.53
2022-11-24T14:37:30.628Z,8.37
2022-11-24T14:42:33.317Z,8.31
2022-11-24T14:47:37.454Z,8.36
2022-11-24T14:52:46.459Z,8.31
2022-11-24T14:57:48.297Z,8.23
2022-11-24T15:03:02.115Z,8.11
2022-11-24T15:08:04.041Z,8.03
2022-11-24T15:13:16.890Z,7.92
2022-11-24T15:18:35.451Z,7.78
2022-11-24T15:23:37.875Z,7.49
2022-11-24T15:28:40.134Z,7.46
2022-11-24T15:33:42.402Z,7.33
2022-11-24T15:38:44.131Z,7.19
2022-11-24T15:43:46.595Z,7.31
2022-11-24T15:48:48.253Z,7.11
2022-11-24T15:53:55.774Z,7.18
2022-11-24T15:59:02.558Z,7.38
2022-11-24T16:04:04.390Z,7.21
2022-11-24T16:09:06.051Z,7.27
2022-11-24T16:14:08.891Z,7.14
2022-11-24T16:19:10.925Z,6.93
2022-11-24T16:24:12.611Z,6.86
2022-11-24T16:29:15.036Z,6.83
2022-11-24T16:34:16.743Z,6.77
2022-11-24T16:39:18.419Z,6.65
2022-11-24T16:44:20.117Z,6.46
2022-11-24T16:49:22.084Z,6.46
2022-11-24T16:54:23.904Z,6.49
2022-11-24T16:59:25.615Z,6.70
2022-11-24T17:04:27.264Z,6.71
2022-11-24T17:09:28.923Z,6.50
2022-11-24T17:14:30.693Z,6.53
2022-11-24T17:19:32.368Z,6.48
2022-11-24T17:24:34.254Z,6.38
2022-11-24T17:29:36.017Z,6.34
2022-11-24T17:34:37.745Z,6.40
2022-11-24T17:39:39.433Z,6.44
2022-11-24T17:44:41.089Z,6.38
2022-11-24T17:49:42.758Z,6.25
2022-11-24T17:54:46.649Z,6.12
2022-11-24T17:59:48.631Z,6.12
2022-11-24T18:04:50.329Z,6.33
2022-11-24T18:09:52.003Z,6.48
2022-11-24T18:14:53.711Z,6.33
2022-11-24T18:19:55.385Z,6.11
2022-11-24T18:24:57.038Z,6.49
2022-11-24T18:29:58.698Z,6.58
2022-11-24T18:35:00.491Z,6.65
2022-11-24T18:40:02.581Z,6.47
2022-11-24T18:45:05.375Z,6.43
2022-11-24T18:50:08.030Z,6.48
2022-11-24T18:55:10.096Z,6.70
2022-11-24T19:00:12.497Z,6.63
2022-11-24T19:05:14.304Z,6.61
2022-11-24T19:10:16.153Z,6.55
2022-11-24T19:15:17.816Z,6.35
2022-11-24T19:20:19.464Z,6.37
2022-11-24T19:25:21.310Z,6.57
2022-11-24T19:30:23.481Z,6.53
2022-11-24T19:35:25.155Z,6.31
2022-11-24T19:40:26.887Z,6.44
2022-11-24T19:45:28.840Z,6.49
2022-11-24T19:50:30.518Z,6.30
2022-11-24T19:55:32.427Z,6.23
2022-11-24T20:00:34.080Z,6.10
2022-11-24T20:05:35.715Z,6.06
2022-11-24T20:10:39.907Z,6.14
2022-11-24T20:15:41.570Z,6.07
2022-11-24T20:20:43.236Z,6.17
2022-11-24T20:25:44.906Z,6.16
2022-11-24T20:30:46.598Z,5.97
2022-11-24T20:35:48.258Z,6.05
2022-11-24T20:40:49.998Z,6.20
2022-11-24T20:45:51.678Z,6.40
2022-11-24T20:50:53.364Z,6.38
2022-11-24T20:56:06.109Z,6.19
2022-11-24T21:01:09.959Z,6.30
2022-11-24T21:06:13.335Z,6.31
2022-11-24T21:11:15.523Z,6.22
2022-11-24T21:16:20.581Z,6.46
2022-11-24T21:21:24.159Z,6.56
2022-11-24T21:26:25.813Z,6.51
2022-11-24T21:31:27.561Z,6.47
2022-11-24T21:36:31.675Z,6.39
2022-11-24T21:41:33.920Z,6.43
2022-11-24T21:46:43.584Z,6.39
2022-11-24T21:51:47.810Z,6.41
2022-11-24T21:56:49.465Z,6.45
2022-11-24T22:01:51.285Z,6.41
2022-11-24T22:06:53.510Z,6.42
2022-11-24T22:11:55.732Z,6.51
2022-11-24T22:16:57.399Z,6.50
2022-11-24T22:21:59.047Z,6.35
2022-11-24T22:27:02.927Z,6.09
2022-11-24T22:32:04.839Z,6.19
2022-11-24T22:37:06.625Z,6.13
2022-11-24T22:42:08.280Z,6.07
2022-11-24T22:47:10.075Z,5.84
2022-11-24T22:52:14.422Z,6.02
2022-11-24T22:57:16.075Z,6.13
2022-11-24T23:02:18.369Z,5.78
2022-11-24T23:07:20.119Z,5.82
2022-11-24T23:12:21.813Z,5.60
2022-11-24T23:17:23.472Z,5.29
2022-11-24T23:22:25.137Z,5.35
2022-11-24T23:27:26.836Z,5.04
2022-11-24T23:32:28.540Z,5.02
2022-11-24T23:37:52.152Z,4.90
2022-11-24T23:42:52.131Z,4.53
2022-11-24T23:47:54.178Z,4.97
2022-11-24T23:52:55.840Z,4.86
2022-11-24T23:57:57.523Z,4.81
